Time;durP1;ratioP1;P1;durP2;ratioP2;P2;SDS_P1;SDS_P2;PMS_P1;PMS_P2;Temp;Humidity;BMP_temperature;BMP_pressure;BME280_temperature;BME280_humidity;BME280_pressure;Samples;Min_cycle;Max_cycle;Signal;HPM_P1;HPM_P2
2022/07/20 00:05:12;;;;;;;10.00;4.32;;;;;;;23.42;47.83;100170.03;20994927;28;20044;-69
2022/07/20 00:15:13;;;;;;;9.80;4.43;;;;;;;23.32;48.09;100168.13;21009955;28;20397;-68
2022/07/20 00:25:15;;;;;;;9.48;4.38;;;;;;;23.34;47.34;100163.56;21008214;28;20059;-68
2022/07/20 00:35:16;;;;;;;8.73;4.60;;;;;;;23.34;47.33;100160.88;21008188;28;20059;-68
2022/07/20 00:45:18;;;;;;;8.90;4.20;;;;;;;23.08;49.15;100160.94;21009647;28;20048;-68
2022/07/20 00:55:19;;;;;;;8.50;4.32;;;;;;;22.87;51.07;100170.44;21009610;28;20066;-69
2022/07/20 01:05:21;;;;;;;10.25;4.60;;;;;;;22.51;53.62;100164.03;21007087;28;20096;-69
2022/07/20 01:15:22;;;;;;;11.60;4.78;;;;;;;22.27;55.56;100162.06;21001801;28;20053;-69
2022/07/20 01:25:24;;;;;;;9.23;5.03;;;;;;;21.91;59.79;100159.22;20995112;28;20479;-68
2022/07/20 01:35:25;;;;;;;8.70;4.53;;;;;;;21.73;60.85;100162.13;20991750;28;20059;-69
2022/07/20 01:45:27;;;;;;;7.63;4.22;;;;;;;21.45;63.06;100167.53;20991695;28;20079;-69
2022/07/20 01:55:28;;;;;;;9.43;4.75;;;;;;;21.42;64.85;100179.25;20990092;28;20510;-69
2022/07/20 02:05:29;;;;;;;7.57;4.60;;;;;;;21.29;65.76;100178.31;20989704;28;20052;-69
2022/07/20 02:25:51;;;;;;;8.57;4.47;;;;;;;20.78;67.86;100185.91;20985456;28;20109;-69
2022/07/20 02:35:52;;;;;;;7.10;4.18;;;;;;;20.74;66.48;100185.28;20985908;28;20124;-68
2022/07/20 02:45:54;;;;;;;8.43;4.40;;;;;;;20.57;68.59;100174.78;20985782;28;20052;-70
2022/07/20 02:55:55;;;;;;;10.00;4.90;;;;;;;20.50;69.31;100181.41;20983829;28;20060;-68
2022/07/20 03:05:57;;;;;;;10.55;5.20;;;;;;;20.38;68.41;100176.81;20983344;28;20517;-68
2022/07/20 03:15:58;;;;;;;11.15;4.70;;;;;;;19.86;74.32;100182.53;20982956;28;20052;-68
2022/07/20 03:26:00;;;;;;;9.35;4.68;;;;;;;19.83;74.67;100194.19;20982359;28;20044;-68
2022/07/20 03:36:01;;;;;;;9.90;4.90;;;;;;;19.76;75.39;100207.94;20980125;28;20491;-68
2022/07/20 03:46:03;;;;;;;8.93;4.43;;;;;;;19.67;76.35;100204.84;20980918;28;20052;-68
2022/07/20 03:56:04;;;;;;;17.75;5.30;;;;;;;19.67;73.64;100196.00;20981020;28;20056;-68
2022/07/20 04:06:06;;;;;;;9.20;5.10;;;;;;;19.63;75.13;100208.59;20980177;28;20059;-68
2022/07/20 04:16:07;;;;;;;11.35;5.00;;;;;;;19.57;76.90;100214.22;20979945;28;20044;-68
2022/07/20 04:26:09;;;;;;;7.03;4.88;;;;;;;19.85;75.88;100220.69;20980010;28;20049;-68
2022/07/20 04:36:10;;;;;;;11.23;4.93;;;;;;;20.11;75.18;100238.63;20979179;28;20060;-67
2022/07/20 04:46:11;;;;;;;10.75;4.70;;;;;;;20.31;70.41;100249.91;20980219;28;20053;-68
2022/07/20 04:56:13;;;;;;;9.18;4.95;;;;;;;21.73;62.08;100258.06;20991563;28;20485;-67
2022/07/20 05:06:14;;;;;;;9.38;5.20;;;;;;;21.34;64.38;100268.59;20992896;28;20056;-68
2022/07/20 05:16:16;;;;;;;9.88;4.55;;;;;;;21.77;63.16;100256.91;20993332;28;20530;-68
2022/07/20 05:26:17;;;;;;;8.07;4.93;;;;;;;22.03;62.80;100267.69;20992625;28;20076;-68
2022/07/20 05:36:18;;;;;;;10.55;5.60;;;;;;;22.42;59.46;100264.25;20990502;28;20056;-68
2022/07/20 05:46:20;;;;;;;16.92;5.72;;;;;;;22.79;55.74;100262.59;20990054;28;20051;-68
2022/07/20 05:56:21;;;;;;;27.83;7.25;;;;;;;23.05;63.01;100270.66;20990244;28;20048;-69
2022/07/20 06:06:23;;;;;;;17.58;5.78;;;;;;;23.22;59.02;100278.31;20987817;28;20048;-68
2022/07/20 06:16:25;;;;;;;14.13;5.57;;;;;;;23.43;55.89;100286.66;20989131;28;20048;-68
2022/07/20 06:26:26;;;;;;;20.13;5.85;;;;;;;23.75;54.82;100286.19;20988579;28;20054;-68
2022/07/20 06:36:28;;;;;;;13.90;5.45;;;;;;;24.03;58.80;100295.72;20934046;28;20053;-68
2022/07/20 06:46:29;;;;;;;16.63;5.90;;;;;;;24.33;52.65;100301.47;20913890;28;20048;-68
2022/07/20 06:56:30;;;;;;;12.88;6.10;;;;;;;24.56;54.48;100313.16;20901322;28;20132;-67
2022/07/20 07:06:32;;;;;;;12.30;5.55;;;;;;;24.86;57.26;100317.16;20899716;28;20049;-68
2022/07/20 07:16:33;;;;;;;10.82;5.95;;;;;;;25.25;53.38;100307.06;20900595;28;20056;-68
2022/07/20 07:26:35;;;;;;;12.93;5.95;;;;;;;25.66;48.45;100311.81;20900663;28;20508;-68
2022/07/20 07:36:36;;;;;;;12.45;5.97;;;;;;;26.33;48.48;100298.28;20898980;28;20057;-68
2022/07/20 07:46:38;;;;;;;8.70;5.47;;;;;;;26.73;48.02;100316.44;20898570;28;20090;-68
2022/07/20 07:56:41;;;;;;;9.20;5.70;;;;;;;27.34;46.04;100304.97;20898341;28;20501;-68
2022/07/20 08:06:43;;;;;;;9.67;5.47;;;;;;;28.00;42.57;100304.53;20923503;28;20049;-68
2022/07/20 08:16:44;;;;;;;13.50;5.82;;;;;;;28.30;40.31;100300.88;20937244;28;20051;-68
2022/07/20 08:26:46;;;;;;;11.10;5.70;;;;;;;28.73;39.35;100305.88;20947567;28;20409;-68
2022/07/20 08:36:47;;;;;;;12.57;7.53;;;;;;;28.81;39.83;100324.88;20977258;28;20053;-68
2022/07/20 08:46:49;;;;;;;11.90;7.65;;;;;;;29.24;40.01;100325.41;20978287;28;20048;-69
2022/07/20 08:56:50;;;;;;;19.50;9.30;;;;;;;29.74;38.55;100319.69;20951440;28;20083;-69
2022/07/20 09:06:51;;;;;;;14.43;10.30;;;;;;;30.07;39.67;100318.22;20941713;28;20064;-69
2022/07/20 09:16:53;;;;;;;15.70;10.82;;;;;;;30.46;39.50;100316.13;20952997;28;20044;-69
2022/07/20 09:26:54;;;;;;;18.90;11.02;;;;;;;30.53;39.04;100322.63;20987486;28;20447;-69
2022/07/20 09:36:55;;;;;;;23.50;11.57;;;;;;;30.61;39.33;100316.44;20990423;28;20052;-69
2022/07/20 09:46:57;;;;;;;18.00;12.48;;;;;;;30.20;42.06;100326.00;20990983;28;20078;-70
2022/07/20 09:56:58;;;;;;;17.73;12.68;;;;;;;30.77;41.78;100313.91;20990044;28;20101;-70
2022/07/20 10:06:59;;;;;;;19.73;12.25;;;;;;;31.35;40.90;100304.34;20988374;28;20431;-70
2022/07/20 10:17:01;;;;;;;20.67;14.73;;;;;;;31.96;41.11;100300.59;20987650;28;20052;-70
2022/07/20 10:27:02;;;;;;;22.13;15.32;;;;;;;32.29;38.75;100306.94;20987638;28;20048;-69
2022/07/20 10:37:03;;;;;;;22.67;14.15;;;;;;;31.96;39.73;100307.84;20987332;28;20530;-69
2022/07/20 10:47:05;;;;;;;23.98;14.57;;;;;;;32.38;39.55;100299.66;20986386;28;20058;-69
2022/07/20 10:57:07;;;;;;;16.97;13.10;;;;;;;33.02;39.00;100313.44;20985536;28;20140;-70
2022/07/20 11:07:08;;;;;;;22.85;14.55;;;;;;;33.43;38.36;100320.50;20984963;28;20045;-70
2022/07/20 11:17:10;;;;;;;23.27;15.50;;;;;;;33.27;38.39;100297.97;20985762;28;20087;-69
2022/07/20 11:27:12;;;;;;;21.17;14.70;;;;;;;33.62;38.08;100291.25;20986077;28;20072;-70
2022/07/20 11:37:14;;;;;;;21.00;15.10;;;;;;;33.21;38.48;100295.94;20983922;28;20059;-70
2022/07/20 11:47:15;;;;;;;21.40;14.90;;;;;;;33.40;37.49;100279.25;20981360;28;20051;-70
2022/07/20 11:57:17;;;;;;;20.97;15.13;;;;;;;33.46;37.33;100264.16;20983571;28;20053;-71
2022/07/20 12:17:38;;;;;;;20.75;13.90;;;;;;;33.41;37.10;100268.22;20983076;28;20567;-71
2022/07/20 12:27:42;;;;;;;18.70;12.43;;;;;;;33.57;36.53;100259.19;20982893;28;20144;-72
2022/07/20 12:37:43;;;;;;;23.02;12.35;;;;;;;33.21;36.63;100275.09;20981825;28;20052;-70
2022/07/20 12:47:44;;;;;;;19.60;10.97;;;;;;;33.25;35.69;100271.00;20981691;28;20055;-71
2022/07/20 12:58:06;;;;;;;15.98;10.63;;;;;;;33.33;36.49;100279.09;20981916;28;20052;-70
2022/07/20 13:08:07;;;;;;;16.53;11.17;;;;;;;33.04;36.37;100278.84;20947252;28;20049;-71
2022/07/20 13:18:09;;;;;;;18.70;10.93;;;;;;;32.66;36.45;100251.41;20912028;28;20139;-70
2022/07/20 13:28:11;;;;;;;19.23;11.30;;;;;;;33.13;36.32;100261.53;20911874;28;20124;-71
2022/07/20 13:38:22;;;;;;;17.03;10.97;;;;;;;33.92;34.75;100260.56;20917310;28;20064;-70
2022/07/20 13:48:23;;;;;;;17.10;10.77;;;;;;;33.84;34.53;100268.75;20987985;28;20052;-70
2022/07/20 13:58:25;;;;;;;16.67;10.57;;;;;;;34.68;32.53;100252.53;20990015;28;20048;-70
2022/07/20 14:08:26;;;;;;;23.17;10.50;;;;;;;34.38;30.86;100247.00;20988771;28;20131;-70
2022/07/20 14:18:28;;;;;;;15.23;10.32;;;;;;;34.11;31.56;100233.94;20989669;28;20055;-70
2022/07/20 14:28:30;;;;;;;14.13;9.40;;;;;;;33.62;31.62;100228.78;20988573;28;20440;-69
2022/07/20 14:38:32;;;;;;;20.13;9.85;;;;;;;33.26;33.06;100218.41;20985991;28;20064;-69
2022/07/20 14:48:35;;;;;;;14.85;10.10;;;;;;;33.72;34.90;100206.84;20986548;28;20124;-69
2022/07/20 14:58:36;;;;;;;14.47;10.13;;;;;;;34.18;33.70;100194.16;20985138;23;20042;-78
2022/07/20 15:08:37;;;;;;;17.40;11.20;;;;;;;34.09;33.49;100176.22;20746951;28;20038;-77
2022/07/20 15:18:39;;;;;;;15.40;11.20;;;;;;;33.81;32.89;100165.88;20742069;28;20057;-76
2022/07/20 15:28:40;;;;;;;17.63;12.10;;;;;;;33.73;33.52;100170.50;20740518;28;20421;-76
2022/07/20 15:38:42;;;;;;;15.33;11.87;;;;;;;33.74;34.11;100177.66;20738887;28;20061;-76
2022/07/20 15:48:44;;;;;;;22.63;12.80;;;;;;;33.59;36.70;100180.28;20739181;28;20414;-76
2022/07/20 15:58:46;;;;;;;21.05;13.63;;;;;;;33.69;37.36;100176.31;20738291;28;20064;-76
2022/07/20 16:08:48;;;;;;;16.23;14.20;;;;;;;32.78;39.18;100171.41;20787416;28;20045;-76
2022/07/20 16:18:50;;;;;;;22.87;14.80;;;;;;;32.61;39.97;100165.16;20810946;28;20056;-76
2022/07/20 16:28:51;;;;;;;20.73;13.63;;;;;;;32.42;41.65;100170.94;20811546;28;20855;-76
2022/07/20 16:38:54;;;;;;;19.88;12.60;;;;;;;32.01;41.93;100167.38;20810239;28;20508;-76
2022/07/20 16:48:56;;;;;;;;;;;;;;;31.62;42.12;100170.66;20818585;28;20046;-77
2022/07/20 16:59:13;;;;;;;15.55;12.20;;;;;;;31.35;41.66;100172.63;20825278;28;19928;-76
2022/07/20 17:09:14;;;;;;;15.65;12.10;;;;;;;31.03;43.03;100167.03;20824148;28;20588;-75
2022/07/20 17:19:25;;;;;;;17.35;12.18;;;;;;;30.55;49.26;100212.50;20822541;28;20064;-75
2022/07/20 17:29:27;;;;;;;15.52;11.98;;;;;;;29.77;51.37;100216.84;20822548;28;20084;-75
2022/07/20 17:39:28;;;;;;;17.73;11.60;;;;;;;29.56;52.87;100257.56;20822349;28;20144;-74
2022/07/20 17:49:32;;;;;;;17.75;11.80;;;;;;;29.60;51.85;100337.22;20792312;28;20477;-74
2022/07/20 17:59:33;;;;;;;14.45;10.05;;;;;;;29.60;49.26;100439.75;20736329;28;20076;-74
2022/07/20 18:09:34;;;;;;;25.98;11.80;;;;;;;27.20;81.26;100505.09;20737398;28;20057;-73
2022/07/20 18:19:36;;;;;;;19.75;11.90;;;;;;;23.88;100.00;100601.72;20817688;28;20049;-76
2022/07/20 18:29:38;;;;;;;17.80;11.15;;;;;;;23.21;100.00;100479.66;20817049;28;20497;-76
2022/07/20 18:39:40;;;;;;;18.55;11.13;;;;;;;23.23;100.00;100359.31;20792074;28;20062;-78
2022/07/20 18:49:41;;;;;;;14.93;10.90;;;;;;;22.03;100.00;100238.34;20659778;28;20054;-76
2022/07/20 18:59:43;;;;;;;15.60;9.40;;;;;;;22.16;100.00;100313.97;20653209;28;20056;-77
2022/07/20 19:09:44;;;;;;;16.17;9.13;;;;;;;22.43;100.00;100273.97;20657524;28;20106;-78
2022/07/20 19:19:45;;;;;;;12.27;9.25;;;;;;;22.37;100.00;100353.53;20816873;28;20049;-76
2022/07/20 19:29:50;;;;;;;16.58;10.00;;;;;;;22.27;100.00;100427.97;20813514;28;20053;-75
2022/07/20 19:39:57;;;;;;;15.23;10.93;;;;;;;22.43;100.00;100460.72;20811402;28;20057;-75
2022/07/20 19:49:59;;;;;;;17.45;11.10;;;;;;;22.68;100.00;100529.38;20812690;28;20073;-74
2022/07/20 20:00:00;;;;;;;14.40;10.70;;;;;;;22.72;100.00;100538.91;20810062;28;20676;-74
2022/07/20 20:10:01;;;;;;;14.63;10.63;;;;;;;22.77;100.00;100536.81;20810734;28;20048;-73
2022/07/20 20:20:03;;;;;;;17.40;10.20;;;;;;;22.66;100.00;100590.03;20815474;28;20708;-74
2022/07/20 20:30:04;;;;;;;18.88;10.07;;;;;;;22.48;100.00;100613.38;20826746;28;20156;-74
2022/07/20 20:40:05;;;;;;;13.30;9.95;;;;;;;22.44;100.00;100586.97;20827196;28;20466;-77
2022/07/20 20:50:07;;;;;;;12.77;9.35;;;;;;;22.64;100.00;100672.00;20826019;28;20136;-76
2022/07/20 21:00:09;;;;;;;12.52;10.18;;;;;;;22.43;100.00;100700.84;20824912;28;20053;-77
2022/07/20 21:10:10;;;;;;;13.85;11.13;;;;;;;22.59;100.00;100731.94;20824196;28;20144;-77
2022/07/20 21:20:12;;;;;;;17.75;12.73;;;;;;;22.65;100.00;100704.88;20825575;28;20049;-79
2022/07/20 21:30:13;;;;;;;19.85;13.30;;;;;;;22.45;100.00;100698.94;20822794;28;20076;-73
2022/07/20 21:40:15;;;;;;;15.35;12.75;;;;;;;22.13;100.00;100666.19;20828690;28;20479;-71
2022/07/20 21:50:16;;;;;;;20.20;13.60;;;;;;;22.30;100.00;100667.00;20821590;28;20295;-74
2022/07/20 22:00:18;;;;;;;20.00;13.93;;;;;;;22.23;100.00;100635.38;20814065;28;20060;-76
2022/07/20 22:10:19;;;;;;;22.20;16.42;;;;;;;22.02;100.00;100637.47;20746228;28;20145;-75
2022/07/20 22:20:20;;;;;;;22.63;16.48;;;;;;;21.78;100.00;100626.44;20745767;28;20144;-76
2022/07/20 22:30:22;;;;;;;18.98;16.02;;;;;;;21.43;100.00;100622.31;20744029;28;20514;-77
2022/07/20 22:40:23;;;;;;;18.77;15.18;;;;;;;21.24;100.00;100636.63;20744283;28;20096;-76
2022/07/20 22:50:24;;;;;;;17.98;13.30;;;;;;;21.15;100.00;100644.28;20744020;28;20062;-77
2022/07/20 23:00:26;;;;;;;15.80;12.80;;;;;;;21.15;100.00;100644.28;20742050;28;20049;-76
2022/07/20 23:10:27;;;;;;;20.73;14.30;;;;;;;21.09;100.00;100640.16;20742451;28;20057;-76
2022/07/20 23:20:29;;;;;;;17.30;12.85;;;;;;;20.96;100.00;100623.13;20740893;28;20053;-76
2022/07/20 23:30:30;;;;;;;18.48;13.07;;;;;;;20.96;100.00;100624.00;20746630;28;20473;-76
2022/07/20 23:40:31;;;;;;;15.82;12.45;;;;;;;20.92;100.00;100626.91;20739427;28;20049;-76
2022/07/20 23:50:33;;;;;;;19.17;13.70;;;;;;;20.83;100.00;100620.28;20738575;28;20100;-77
